Time;durP1;ratioP1;P1;durP2;ratioP2;P2;SDS_P1;SDS_P2;PMS_P1;PMS_P2;Temp;Humidity;BMP_temperature;BMP_pressure;BME280_temperature;BME280_humidity;BME280_pressure;Samples;Min_cycle;Max_cycle;Signal;HPM_P1;HPM_P2
2021/05/21 00:00:33;;;;;;;11.18;5.05;;;11.90;99.90;;;;;;5020611;28;20095;-77
2021/05/21 00:03:01;;;;;;;17.08;5.88;;;11.90;99.90;;;;;;5045847;28;20041;-80
2021/05/21 00:05:27;;;;;;;16.50;5.82;;;11.80;99.90;;;;;;5045218;28;20060;-79
2021/05/21 00:07:52;;;;;;;11.45;4.90;;;11.80;99.90;;;;;;5007754;28;20505;-78
2021/05/21 00:10:18;;;;;;;12.25;6.47;;;11.80;99.90;;;;;;5025916;28;20057;-76
2021/05/21 00:12:43;;;;;;;10.10;5.90;;;11.70;99.90;;;;;;5025861;28;20034;-80
2021/05/21 00:15:10;;;;;;;12.20;5.90;;;11.70;99.90;;;;;;5008097;28;20033;-80
2021/05/21 00:17:35;;;;;;;13.50;5.93;;;11.70;99.90;;;;;;5007973;28;20049;-78
2021/05/21 00:20:01;;;;;;;13.77;6.20;;;11.70;99.90;;;;;;5008225;28;20045;-81
2021/05/21 00:22:27;;;;;;;10.07;5.43;;;11.70;99.90;;;;;;5007990;28;20030;-80
2021/05/21 00:24:53;;;;;;;17.20;6.97;;;11.70;99.90;;;;;;5025941;28;20026;-80
2021/05/21 00:27:18;;;;;;;10.43;5.68;;;11.70;99.90;;;;;;5008028;28;20026;-80
2021/05/21 00:29:44;;;;;;;8.32;5.13;;;11.60;99.90;;;;;;5007733;28;20498;-81
2021/05/21 00:32:10;;;;;;;11.27;5.03;;;11.60;99.90;;;;;;5007853;28;20029;-80
2021/05/21 00:34:36;;;;;;;14.55;7.25;;;11.60;99.90;;;;;;5008556;28;20114;-83
2021/05/21 00:37:01;;;;;;;17.75;7.75;;;11.60;99.90;;;;;;5007352;28;20081;-80
2021/05/21 00:39:27;;;;;;;12.38;6.97;;;11.50;99.90;;;;;;5008209;28;20036;-83
2021/05/21 00:41:52;;;;;;;15.52;7.28;;;11.50;99.90;;;;;;5008344;28;20053;-82
2021/05/21 00:44:18;;;;;;;17.33;6.30;;;11.50;99.90;;;;;;5007352;28;20060;-82
2021/05/21 00:46:44;;;;;;;11.77;5.60;;;11.50;99.90;;;;;;5007654;28;20037;-82
2021/05/21 00:49:09;;;;;;;8.00;5.18;;;11.50;99.90;;;;;;5007614;28;20030;-80
2021/05/21 00:51:35;;;;;;;9.65;5.82;;;11.40;99.90;;;;;;5033768;28;20036;-81
2021/05/21 00:54:02;;;;;;;10.18;5.65;;;11.50;99.90;;;;;;5044868;28;20068;-84
2021/05/21 00:56:29;;;;;;;13.85;6.53;;;11.30;99.90;;;;;;5027098;28;20053;-81
2021/05/21 00:58:57;;;;;;;12.30;5.35;;;11.40;99.90;;;;;;5026996;28;20032;-82
2021/05/21 01:01:22;;;;;;;12.30;5.70;;;11.40;99.90;;;;;;5044074;28;20080;-83
2021/05/21 01:03:48;;;;;;;18.52;5.90;;;11.30;99.90;;;;;;5027021;28;20025;-82
2021/05/21 01:06:14;;;;;;;9.55;5.43;;;11.20;99.90;;;;;;5026765;28;20026;-83
2021/05/21 01:08:39;;;;;;;10.35;6.05;;;11.20;99.90;;;;;;5027255;28;20029;-81
2021/05/21 01:11:06;;;;;;;10.65;5.20;;;11.10;99.90;;;;;;5044807;28;20047;-84
2021/05/21 01:13:33;;;;;;;14.48;5.80;;;11.10;99.90;;;;;;5026706;28;20049;-80
2021/05/21 01:15:59;;;;;;;10.55;5.97;;;11.10;99.90;;;;;;5026862;28;20033;-81
2021/05/21 01:18:24;;;;;;;13.07;5.95;;;11.00;99.90;;;;;;5026305;28;20401;-82
2021/05/21 01:20:50;;;;;;;16.23;6.22;;;11.00;99.90;;;;;;5026620;28;20029;-83
2021/05/21 01:23:16;;;;;;;12.07;5.82;;;11.00;99.90;;;;;;5026858;28;20022;-81
2021/05/21 01:25:41;;;;;;;13.32;5.45;;;11.00;99.90;;;;;;5023387;28;20030;-83
2021/05/21 01:28:08;;;;;;;8.77;5.45;;;10.90;99.90;;;;;;5007301;28;20036;-80
2021/05/21 01:30:34;;;;;;;9.60;5.47;;;11.00;99.90;;;;;;5024668;28;20022;-77
2021/05/21 01:33:07;;;;;;;14.82;5.45;;;11.00;99.90;;;;;;5007029;28;20030;-83
2021/05/21 01:35:33;;;;;;;9.25;5.20;;;10.90;99.90;;;;;;5024442;28;20030;-80
2021/05/21 01:37:59;;;;;;;8.80;5.38;;;10.90;99.90;;;;;;5007079;28;20042;-81
2021/05/21 01:40:25;;;;;;;10.13;5.03;;;10.90;99.90;;;;;;5006841;28;20500;-81
2021/05/21 01:42:51;;;;;;;11.65;6.38;;;10.90;99.90;;;;;;5007118;28;20065;-83
2021/05/21 01:45:17;;;;;;;8.73;4.65;;;10.90;99.90;;;;;;5024550;28;20033;-84
2021/05/21 01:47:47;;;;;;;9.77;4.78;;;10.90;99.90;;;;;;5006726;28;20026;-78
2021/05/21 01:50:14;;;;;;;8.60;5.32;;;10.90;99.90;;;;;;5024691;28;20029;-78
2021/05/21 01:52:40;;;;;;;9.77;4.85;;;10.90;99.90;;;;;;5024252;28;20026;-79
2021/05/21 01:55:06;;;;;;;10.15;4.78;;;10.90;99.90;;;;;;5006739;28;20053;-81
2021/05/21 01:57:35;;;;;;;14.80;5.05;;;10.90;99.90;;;;;;5006715;28;20072;-81
2021/05/21 02:00:01;;;;;;;7.70;4.45;;;10.90;99.90;;;;;;5006419;28;20057;-81
2021/05/21 02:02:26;;;;;;;10.35;4.88;;;10.90;99.90;;;;;;5006901;28;20033;-83
2021/05/21 02:04:52;;;;;;;9.40;4.88;;;10.90;99.90;;;;;;5024346;28;20030;-79
2021/05/21 02:07:18;;;;;;;9.65;4.82;;;10.90;99.90;;;;;;5023986;28;20061;-81
2021/05/21 02:09:55;;;;;;;9.38;4.53;;;10.90;99.90;;;;;;5006715;28;20033;-80
2021/05/21 02:12:24;;;;;;;10.27;4.63;;;10.90;99.90;;;;;;5006540;28;20026;-82
2021/05/21 02:14:51;;;;;;;11.85;4.65;;;10.90;99.90;;;;;;5024223;28;20064;-82
2021/05/21 02:17:17;;;;;;;6.88;4.43;;;10.90;99.90;;;;;;5024151;28;20414;-80
2021/05/21 02:19:42;;;;;;;5.07;3.38;;;10.90;99.90;;;;;;5006507;28;20034;-79
2021/05/21 02:22:09;;;;;;;12.63;4.55;;;10.90;99.90;;;;;;5023965;28;20033;-78
2021/05/21 02:24:35;;;;;;;5.75;3.70;;;10.90;99.90;;;;;;5024283;28;20117;-84
2021/05/21 02:27:01;;;;;;;7.20;3.80;;;10.90;99.90;;;;;;5006414;28;20022;-79
2021/05/21 02:29:27;;;;;;;8.38;3.63;;;10.90;99.90;;;;;;5006548;28;20026;-79
2021/05/21 02:31:53;;;;;;;7.70;3.45;;;10.90;99.90;;;;;;5009724;28;20045;-78
2021/05/21 02:34:18;;;;;;;7.30;3.33;;;10.90;99.90;;;;;;5009987;28;20040;-78
2021/05/21 02:36:44;;;;;;;6.05;2.95;;;10.90;99.90;;;;;;5009942;28;20045;-80
2021/05/21 02:39:10;;;;;;;5.28;2.88;;;10.90;99.90;;;;;;5027844;28;20030;-82
2021/05/21 02:41:36;;;;;;;6.13;3.10;;;10.90;99.90;;;;;;5009757;28;20030;-77
2021/05/21 02:44:02;;;;;;;7.03;2.90;;;10.90;99.90;;;;;;5027624;28;20084;-75
2021/05/21 02:46:28;;;;;;;6.88;3.22;;;10.90;99.90;;;;;;5028135;28;20033;-82
2021/05/21 02:48:53;;;;;;;5.43;3.00;;;10.90;99.90;;;;;;5027647;28;20025;-82
2021/05/21 02:51:19;;;;;;;4.38;2.78;;;11.00;99.90;;;;;;5010070;28;20120;-79
2021/05/21 02:53:44;;;;;;;5.68;3.03;;;11.00;99.90;;;;;;5029167;28;20030;-81
2021/05/21 02:56:10;;;;;;;3.35;1.95;;;11.00;99.90;;;;;;5027707;28;20037;-78
2021/05/21 02:58:36;;;;;;;4.30;2.20;;;10.90;99.90;;;;;;5010359;28;20065;-81
2021/05/21 03:01:03;;;;;;;4.38;2.53;;;11.00;99.90;;;;;;5010515;28;20056;-80
2021/05/21 03:03:28;;;;;;;3.03;2.10;;;11.00;99.90;;;;;;5009484;28;20048;-74
2021/05/21 03:05:55;;;;;;;2.67;1.63;;;11.10;99.90;;;;;;5010793;28;20034;-75
2021/05/21 03:08:21;;;;;;;4.85;2.13;;;11.10;99.90;;;;;;5027908;28;20034;-79
2021/05/21 03:10:47;;;;;;;3.85;1.73;;;11.10;99.90;;;;;;5028024;28;20041;-82
2021/05/21 03:13:12;;;;;;;4.03;1.70;;;11.10;99.90;;;;;;5010177;28;20026;-82
2021/05/21 03:15:41;;;;;;;2.45;1.42;;;11.00;99.90;;;;;;5027489;28;20053;-77
2021/05/21 03:18:14;;;;;;;6.55;1.70;;;11.10;99.90;;;;;;5027895;28;20034;-83
2021/05/21 03:20:41;;;;;;;2.25;1.55;;;11.10;99.90;;;;;;5010692;28;20048;-78
2021/05/21 03:23:08;;;;;;;3.80;1.65;;;11.20;99.90;;;;;;5009693;28;20030;-80
2021/05/21 03:25:34;;;;;;;2.78;1.80;;;11.20;99.90;;;;;;5027316;28;20036;-81
2021/05/21 03:28:00;;;;;;;1.35;1.20;;;11.20;99.90;;;;;;5010528;28;20470;-84
2021/05/21 03:30:26;;;;;;;2.25;1.25;;;11.20;99.90;;;;;;5010056;28;20045;-84
2021/05/21 03:32:51;;;;;;;3.40;1.42;;;11.20;99.90;;;;;;5010214;28;20038;-76
2021/05/21 03:35:17;;;;;;;3.95;1.63;;;11.20;99.90;;;;;;5027061;28;20034;-83
2021/05/21 03:37:42;;;;;;;4.05;1.63;;;11.30;99.90;;;;;;5009057;28;20037;-82
2021/05/21 03:40:08;;;;;;;3.95;1.45;;;11.30;99.90;;;;;;5009573;28;20030;-78
2021/05/21 03:42:34;;;;;;;1.35;1.10;;;11.30;99.90;;;;;;5008341;28;20036;-77
2021/05/21 03:45:00;;;;;;;5.20;0.90;;;11.30;99.90;;;;;;5008625;28;20026;-75
2021/05/21 03:47:26;;;;;;;2.47;1.30;;;11.30;99.90;;;;;;5026769;28;20102;-78
2021/05/21 03:49:52;;;;;;;3.03;1.15;;;11.30;99.90;;;;;;5027188;28;20025;-76
2021/05/21 03:52:18;;;;;;;2.15;1.02;;;11.30;99.90;;;;;;5026682;28;20430;-80
2021/05/21 03:54:43;;;;;;;1.90;1.10;;;11.30;99.90;;;;;;5008497;28;20038;-75
2021/05/21 03:57:09;;;;;;;1.35;1.00;;;11.40;99.90;;;;;;5026756;28;20034;-74
2021/05/21 03:59:35;;;;;;;2.53;1.00;;;11.40;99.90;;;;;;5008388;28;20164;-72
2021/05/21 04:02:00;;;;;;;1.33;0.93;;;11.40;99.90;;;;;;5025944;28;20502;-85
2021/05/21 04:04:26;;;;;;;2.40;1.10;;;11.40;99.90;;;;;;5026352;28;20026;-78
2021/05/21 04:06:52;;;;;;;2.47;1.52;;;11.40;99.90;;;;;;5008781;28;20021;-72
2021/05/21 04:09:17;;;;;;;8.82;1.20;;;11.50;99.90;;;;;;5026025;28;20034;-78
2021/05/21 04:11:43;;;;;;;2.22;1.40;;;11.50;99.90;;;;;;5026053;28;20022;-80
2021/05/21 04:14:08;;;;;;;2.63;1.33;;;11.50;99.90;;;;;;5008123;28;20033;-77
2021/05/21 04:16:34;;;;;;;1.63;1.00;;;11.50;99.90;;;;;;5008046;28;20022;-75
2021/05/21 04:19:00;;;;;;;3.05;0.82;;;11.50;99.90;;;;;;5026223;28;20030;-74
2021/05/21 04:21:26;;;;;;;1.90;1.00;;;11.50;99.90;;;;;;5007877;28;20025;-78
2021/05/21 04:23:54;;;;;;;3.92;1.17;;;11.50;99.90;;;;;;5025891;28;20030;-78
2021/05/21 04:26:20;;;;;;;2.25;1.23;;;11.60;99.90;;;;;;5025998;28;20026;-74
2021/05/21 04:28:48;;;;;;;2.47;1.08;;;11.60;99.90;;;;;;5025371;28;20026;-75
2021/05/21 04:31:15;;;;;;;2.05;1.27;;;11.70;99.90;;;;;;5025463;28;20792;-73
2021/05/21 04:33:41;;;;;;;1.80;0.98;;;11.70;99.90;;;;;;5007877;28;20096;-73
2021/05/21 04:36:07;;;;;;;1.02;0.68;;;11.80;99.90;;;;;;5007619;28;20022;-76
2021/05/21 04:38:32;;;;;;;1.58;0.98;;;11.80;99.90;;;;;;5025586;28;20045;-75
2021/05/21 04:40:58;;;;;;;1.73;0.95;;;11.90;99.90;;;;;;5007949;28;20033;-75
2021/05/21 04:43:25;;;;;;;1.27;0.85;;;11.90;99.90;;;;;;5025885;28;20033;-77
2021/05/21 04:45:51;;;;;;;6.03;1.00;;;12.00;99.90;;;;;;5025929;28;20084;-74
2021/05/21 04:48:17;;;;;;;2.13;0.90;;;12.00;99.90;;;;;;5025678;28;20021;-77
2021/05/21 04:50:44;;;;;;;2.33;0.80;;;12.10;99.90;;;;;;5007485;28;20080;-76
2021/05/21 04:53:09;;;;;;;0.57;0.57;;;12.10;99.90;;;;;;5025600;28;20033;-72
2021/05/21 04:55:35;;;;;;;0.95;0.73;;;12.20;99.90;;;;;;5007366;28;20026;-75
2021/05/21 04:58:00;;;;;;;2.40;0.90;;;12.30;99.90;;;;;;5025510;28;20044;-72
2021/05/21 05:00:26;;;;;;;3.10;0.70;;;12.30;99.90;;;;;;5024938;28;20085;-80
2021/05/21 05:02:52;;;;;;;0.88;0.75;;;12.40;99.90;;;;;;5007691;28;20022;-73
2021/05/21 05:05:17;;;;;;;1.42;0.63;;;12.60;99.90;;;;;;5025141;28;20430;-72
2021/05/21 05:07:45;;;;;;;2.05;0.82;;;12.60;99.90;;;;;;5025075;28;20025;-76
2021/05/21 05:10:11;;;;;;;6.05;0.70;;;12.70;99.90;;;;;;5025041;28;20026;-75
2021/05/21 05:12:37;;;;;;;1.88;0.82;;;12.80;99.90;;;;;;5025341;28;20026;-79
2021/05/21 05:15:03;;;;;;;13.23;1.30;;;12.80;99.90;;;;;;5025544;28;20485;-75
2021/05/21 05:17:28;;;;;;;1.98;0.85;;;12.90;99.90;;;;;;5024593;28;20064;-74
2021/05/21 05:19:54;;;;;;;1.60;0.98;;;12.90;99.90;;;;;;5025179;28;20053;-74
2021/05/21 05:22:20;;;;;;;1.13;0.68;;;12.90;99.90;;;;;;5025197;28;20082;-76
2021/05/21 05:24:45;;;;;;;1.33;0.80;;;13.10;99.90;;;;;;5006757;28;20028;-75
2021/05/21 05:27:11;;;;;;;4.13;0.95;;;13.00;99.90;;;;;;5024938;28;20045;-75
2021/05/21 05:29:37;;;;;;;4.97;0.82;;;13.00;99.90;;;;;;5024625;28;20045;-76
2021/05/21 05:32:03;;;;;;;1.67;0.85;;;12.90;99.90;;;;;;5032995;28;20470;-78
2021/05/21 05:34:29;;;;;;;3.17;0.85;;;13.00;99.90;;;;;;5022296;28;20060;-74
2021/05/21 05:36:54;;;;;;;2.80;1.00;;;13.10;99.90;;;;;;5041686;28;20129;-77
2021/05/21 05:39:20;;;;;;;1.25;0.47;;;13.10;99.90;;;;;;5022941;28;20022;-74
2021/05/21 05:41:50;;;;;;;2.47;1.08;;;13.20;99.90;;;;;;5006932;28;20072;-76
2021/05/21 05:44:17;;;;;;;1.80;0.88;;;13.20;99.90;;;;;;5024448;28;20041;-76
2021/05/21 05:46:43;;;;;;;3.05;1.05;;;13.10;99.90;;;;;;5036761;28;20021;-77
2021/05/21 05:49:09;;;;;;;1.50;0.80;;;13.30;99.90;;;;;;5043355;28;20512;-77
2021/05/21 05:51:34;;;;;;;8.13;1.25;;;13.30;99.90;;;;;;5025986;28;20033;-73
2021/05/21 05:54:00;;;;;;;2.47;0.88;;;13.40;99.90;;;;;;5044349;28;20484;-76
2021/05/21 05:56:26;;;;;;;2.22;1.52;;;13.40;99.90;;;;;;5044232;28;20032;-76
2021/05/21 05:58:52;;;;;;;11.43;1.40;;;13.50;99.90;;;;;;5026040;28;20035;-78
2021/05/21 06:01:17;;;;;;;3.53;1.20;;;13.60;99.90;;;;;;5022848;28;20145;-78
2021/05/21 06:03:43;;;;;;;1.48;0.90;;;13.70;99.90;;;;;;5023241;28;20026;-77
2021/05/21 06:06:08;;;;;;;11.90;1.27;;;13.80;99.90;;;;;;5026644;28;20022;-77
2021/05/21 06:08:34;;;;;;;1.83;1.13;;;13.90;99.90;;;;;;5028527;28;20026;-78
2021/05/21 06:11:00;;;;;;;0.98;0.57;;;14.00;99.90;;;;;;5028302;28;20049;-73
2021/05/21 06:13:26;;;;;;;3.38;1.08;;;13.90;99.90;;;;;;5027829;28;20030;-72
2021/05/21 06:15:52;;;;;;;7.80;1.23;;;13.90;99.90;;;;;;5028097;28;20809;-73
2021/05/21 06:18:18;;;;;;;2.22;1.08;;;13.80;99.90;;;;;;5026367;28;20037;-75
2021/05/21 06:20:44;;;;;;;2.50;1.02;;;13.70;99.90;;;;;;5027854;28;20817;-75
2021/05/21 06:23:09;;;;;;;7.78;0.80;;;13.70;99.90;;;;;;5026844;28;20041;-79
2021/05/21 06:28:10;;;;;;;1.42;0.80;;;13.50;99.90;;;;;;5027748;28;20089;-77
2021/05/21 06:30:36;;;;;;;1.08;0.70;;;13.40;99.90;;;;;;5026416;28;20038;-76
2021/05/21 06:33:02;;;;;;;1.52;0.88;;;13.20;99.90;;;;;;5026279;28;20025;-71
2021/05/21 06:35:28;;;;;;;1.73;0.73;;;13.00;99.90;;;;;;5027626;28;20026;-76
2021/05/21 06:37:54;;;;;;;1.75;1.25;;;12.70;99.90;;;;;;5026588;28;20034;-73
2021/05/21 06:40:20;;;;;;;3.00;1.38;;;12.50;99.90;;;;;;5027563;28;20940;-76
2021/05/21 06:42:46;;;;;;;1.58;0.80;;;12.30;99.90;;;;;;5026391;28;20762;-72
2021/05/21 06:45:12;;;;;;;1.58;0.85;;;12.30;99.90;;;;;;5027826;28;20026;-74
2021/05/21 06:47:38;;;;;;;0.80;0.70;;;12.10;99.90;;;;;;5027253;28;20058;-74
2021/05/21 06:50:05;;;;;;;1.60;1.17;;;12.10;99.90;;;;;;5027549;28;20026;-73
2021/05/21 06:52:30;;;;;;;1.08;0.80;;;12.00;99.90;;;;;;5027692;28;20025;-75
2021/05/21 06:54:56;;;;;;;1.70;0.88;;;12.00;99.90;;;;;;5022116;28;20022;-75
2021/05/21 06:57:22;;;;;;;2.08;0.90;;;11.90;99.90;;;;;;5012487;28;20061;-75
2021/05/21 06:59:48;;;;;;;1.80;0.85;;;12.00;99.90;;;;;;5027374;28;20049;-74
2021/05/21 07:02:14;;;;;;;1.85;0.70;;;12.10;99.90;;;;;;5046142;28;20509;-75
2021/05/21 07:04:39;;;;;;;1.05;0.93;;;12.00;99.90;;;;;;5027702;28;20028;-76
2021/05/21 07:07:05;;;;;;;0.68;0.60;;;12.10;99.90;;;;;;5022493;28;20049;-76
2021/05/21 07:09:30;;;;;;;1.95;0.80;;;12.00;99.90;;;;;;5046673;28;20025;-77
2021/05/21 07:11:56;;;;;;;1.25;0.93;;;12.00;99.90;;;;;;5029553;28;20092;-72
2021/05/21 07:14:21;;;;;;;2.03;1.10;;;12.10;99.90;;;;;;5046483;28;20087;-74
2021/05/21 07:16:47;;;;;;;5.40;1.08;;;12.10;99.90;;;;;;5027795;28;20056;-78
2021/05/21 07:19:18;;;;;;;4.03;1.02;;;12.20;99.90;;;;;;5046944;28;20022;-76
2021/05/21 07:21:44;;;;;;;3.63;1.00;;;12.20;99.90;;;;;;5046754;28;20021;-77
2021/05/21 07:24:10;;;;;;;1.35;0.73;;;12.20;99.90;;;;;;5024513;28;20033;-76
2021/05/21 07:26:36;;;;;;;3.15;0.75;;;12.20;99.90;;;;;;5032689;28;20026;-79
2021/05/21 07:29:03;;;;;;;1.55;0.73;;;12.20;99.90;;;;;;5028555;28;20101;-79
2021/05/21 07:31:30;;;;;;;1.60;1.13;;;12.20;99.90;;;;;;5029123;28;20025;-76
2021/05/21 07:33:55;;;;;;;5.60;1.27;;;12.20;99.90;;;;;;5028963;28;20029;-75
2021/05/21 07:36:23;;;;;;;2.47;1.05;;;12.30;99.90;;;;;;5029021;28;20021;-76
2021/05/21 07:38:49;;;;;;;5.78;1.67;;;12.30;99.90;;;;;;5028586;28;20033;-75
2021/05/21 07:41:16;;;;;;;3.35;1.05;;;12.40;99.90;;;;;;5028662;28;20033;-78
2021/05/21 07:43:41;;;;;;;1.02;0.70;;;12.30;99.90;;;;;;5021979;28;20033;-76
2021/05/21 07:46:08;;;;;;;2.55;1.02;;;12.30;99.90;;;;;;5025232;28;20025;-78
2021/05/21 07:48:34;;;;;;;0.93;0.60;;;12.30;99.90;;;;;;5026315;28;20029;-79
2021/05/21 07:51:02;;;;;;;0.52;0.30;;;12.30;99.90;;;;;;5027413;28;20116;-77
2021/05/21 07:53:31;;;;;;;3.88;1.60;;;12.30;99.90;;;;;;5045643;28;20037;-75
2021/05/21 07:55:56;;;;;;;4.65;1.45;;;12.40;99.90;;;;;;5045400;28;20158;-76
2021/05/21 07:58:22;;;;;;;0.82;0.70;;;12.40;99.90;;;;;;5045316;28;20033;-77
2021/05/21 08:00:47;;;;;;;17.60;2.05;;;12.50;99.90;;;;;;5043590;28;20067;-75
2021/05/21 08:03:17;;;;;;;2.67;1.10;;;12.60;99.90;;;;;;5045296;28;20063;-74
2021/05/21 08:05:43;;;;;;;5.50;1.20;;;12.70;99.90;;;;;;5026835;28;20032;-79
2021/05/21 08:08:09;;;;;;;8.10;1.73;;;12.70;99.90;;;;;;5027188;28;20033;-74
2021/05/21 08:10:34;;;;;;;13.32;1.10;;;12.70;99.90;;;;;;5043788;28;20044;-71
2021/05/21 08:13:06;;;;;;;4.70;1.35;;;12.80;99.90;;;;;;5043055;28;20019;-74
2021/05/21 08:15:32;;;;;;;4.05;1.50;;;12.80;99.90;;;;;;5025752;28;20041;-76
2021/05/21 08:17:58;;;;;;;7.57;1.73;;;12.80;99.90;;;;;;5045250;28;20130;-75
2021/05/21 08:20:24;;;;;;;6.30;1.80;;;12.70;99.90;;;;;;5045478;28;20452;-73
2021/05/21 08:22:50;;;;;;;2.72;0.75;;;12.70;99.90;;;;;;5045267;28;20041;-73
2021/05/21 08:25:15;;;;;;;6.95;1.45;;;12.60;99.90;;;;;;5045336;28;20089;-74
2021/05/21 08:27:41;;;;;;;7.80;2.55;;;12.70;99.90;;;;;;5044908;28;20132;-75
2021/05/21 08:30:07;;;;;;;4.57;1.38;;;12.60;99.90;;;;;;5026160;28;20025;-76
2021/05/21 08:32:35;;;;;;;6.00;1.20;;;12.80;99.90;;;;;;5041065;28;20036;-76
2021/05/21 08:35:01;;;;;;;6.45;2.15;;;12.80;99.90;;;;;;5032155;28;20029;-78
2021/05/21 08:37:26;;;;;;;10.93;1.92;;;12.90;99.90;;;;;;5025557;28;20042;-74
2021/05/21 08:39:52;;;;;;;14.63;2.50;;;13.00;99.90;;;;;;5025531;28;20018;-75
2021/05/21 08:42:18;;;;;;;8.38;1.92;;;13.10;99.90;;;;;;5041732;28;20037;-76
2021/05/21 08:44:49;;;;;;;6.00;1.52;;;13.20;99.90;;;;;;5045078;28;20121;-74
2021/05/21 08:47:15;;;;;;;5.38;2.00;;;13.20;99.90;;;;;;5044843;28;20722;-74
2021/05/21 08:49:40;;;;;;;6.35;1.60;;;13.30;99.90;;;;;;5022135;28;20045;-75
2021/05/21 08:52:06;;;;;;;5.72;2.00;;;13.40;99.90;;;;;;5022590;28;20085;-76
2021/05/21 08:54:35;;;;;;;3.50;1.63;;;13.60;99.90;;;;;;5022781;28;20104;-77
2021/05/21 08:57:08;;;;;;;6.15;1.58;;;13.80;99.90;;;;;;5024785;28;20053;-75
2021/05/21 08:59:34;;;;;;;2.53;1.25;;;14.00;99.90;;;;;;5030947;28;20121;-74
2021/05/21 09:02:00;;;;;;;4.35;1.48;;;14.10;99.90;;;;;;5029761;28;20426;-73
2021/05/21 09:04:48;;;;;;;6.78;1.40;;;14.30;99.90;;;;;;5044428;28;20026;-76
2021/05/21 09:07:21;;;;;;;9.13;1.50;;;14.30;99.90;;;;;;5042723;28;20044;-73
2021/05/21 09:09:46;;;;;;;16.38;1.77;;;14.40;99.90;;;;;;5025947;28;20030;-75
2021/05/21 09:12:12;;;;;;;9.38;1.83;;;14.40;99.90;;;;;;5045033;28;20067;-76
2021/05/21 09:14:37;;;;;;;14.85;1.63;;;14.50;99.90;;;;;;5044329;28;20047;-72
2021/05/21 09:17:03;;;;;;;7.20;1.88;;;14.70;99.90;;;;;;5041968;28;20042;-71
2021/05/21 09:19:29;;;;;;;3.10;1.35;;;14.80;99.90;;;;;;5035186;28;20029;-78
2021/05/21 09:22:08;;;;;;;6.32;2.25;;;15.00;99.90;;;;;;5029470;28;20064;-72
2021/05/21 09:24:34;;;;;;;5.47;1.00;;;15.20;99.90;;;;;;5043530;28;20025;-73
2021/05/21 09:27:00;;;;;;;7.28;1.17;;;15.40;99.90;;;;;;5026988;28;20492;-74
2021/05/21 09:29:46;;;;;;;2.15;1.02;;;15.40;99.90;;;;;;5042458;28;20026;-71
2021/05/21 09:32:27;;;;;;;2.78;0.77;;;15.60;99.90;;;;;;5036613;28;20038;-73
2021/05/21 09:35:10;;;;;;;4.82;1.23;;;15.60;99.90;;;;;;5031368;28;20037;-72
2021/05/21 09:37:41;;;;;;;3.20;0.90;;;15.60;99.90;;;;;;5026292;28;20052;-73
2021/05/21 09:40:13;;;;;;;5.90;1.70;;;15.60;99.90;;;;;;5030850;28;20038;-73
2021/05/21 09:42:49;;;;;;;6.25;1.60;;;15.70;99.90;;;;;;5029507;28;20077;-75
2021/05/21 09:45:18;;;;;;;7.00;1.05;;;15.80;99.90;;;;;;5048294;28;20048;-74
2021/05/21 09:47:49;;;;;;;1.50;0.80;;;15.80;99.90;;;;;;5047770;28;20013;-73
2021/05/21 09:50:15;;;;;;;2.30;1.15;;;15.80;99.90;;;;;;5030450;28;20037;-74
2021/05/21 09:52:47;;;;;;;8.50;1.25;;;15.90;99.90;;;;;;5047228;28;20029;-76
2021/05/21 09:55:14;;;;;;;1.30;1.20;;;16.00;99.90;;;;;;5048411;28;20055;-74
2021/05/21 09:57:40;;;;;;;3.70;1.17;;;16.10;99.90;;;;;;5045308;28;20068;-72
2021/05/21 10:00:15;;;;;;;1.67;1.15;;;16.20;99.90;;;;;;5045670;28;20026;-72
2021/05/21 10:02:41;;;;;;;2.00;1.13;;;16.20;99.90;;;;;;5047009;28;20037;-77
2021/05/21 10:05:07;;;;;;;9.60;1.13;;;16.30;99.90;;;;;;5046961;28;20168;-75
2021/05/21 10:07:33;;;;;;;3.40;1.25;;;16.40;99.90;;;;;;5029266;28;20116;-72
2021/05/21 10:09:59;;;;;;;3.42;1.02;;;16.60;99.90;;;;;;5047208;28;20068;-75
2021/05/21 10:12:25;;;;;;;2.38;1.13;;;16.70;99.90;;;;;;5047726;28;20029;-73
2021/05/21 10:14:51;;;;;;;1.35;0.73;;;16.70;99.90;;;;;;5048139;28;20029;-74
2021/05/21 10:17:18;;;;;;;3.67;1.10;;;16.90;99.90;;;;;;5028892;28;20041;-71
2021/05/21 10:19:46;;;;;;;2.63;0.80;;;17.10;99.90;;;;;;5029142;28;20064;-73
2021/05/21 10:22:17;;;;;;;4.93;1.40;;;16.90;99.90;;;;;;5030016;28;20033;-74
2021/05/21 10:24:45;;;;;;;4.80;1.25;;;16.70;99.90;;;;;;5029935;28;20034;-74
2021/05/21 10:27:17;;;;;;;4.97;1.30;;;16.50;99.90;;;;;;5047103;28;20037;-73
2021/05/21 10:29:55;;;;;;;2.53;0.75;;;16.20;99.90;;;;;;5047548;28;20379;-72
2021/05/21 10:32:30;;;;;;;3.80;1.05;;;15.90;99.90;;;;;;5040403;28;20026;-74
2021/05/21 10:35:12;;;;;;;8.77;1.42;;;15.60;99.90;;;;;;5045464;28;20021;-73
2021/05/21 10:37:39;;;;;;;4.65;1.40;;;15.30;99.90;;;;;;5028669;28;20034;-74
2021/05/21 10:40:10;;;;;;;4.07;1.67;;;15.00;99.90;;;;;;5038125;28;20029;-71
2021/05/21 10:42:38;;;;;;;3.15;1.52;;;14.70;99.90;;;;;;5047510;28;20022;-74
2021/05/21 10:45:15;;;;;;;8.88;2.20;;;14.50;99.90;;;;;;5034698;28;20033;-74
2021/05/21 10:47:45;;;;;;;3.30;1.55;;;14.50;99.90;;;;;;5046304;28;20033;-71
2021/05/21 10:50:20;;;;;;;9.40;1.83;;;14.60;99.90;;;;;;5042130;28;20440;-73
2021/05/21 10:52:58;;;;;;;4.35;1.73;;;14.70;99.90;;;;;;5023548;28;20042;-74
2021/05/21 10:55:48;;;;;;;4.00;1.52;;;14.90;99.90;;;;;;5027520;28;20034;-75
2021/05/21 10:58:30;;;;;;;7.65;1.67;;;14.90;99.90;;;;;;5031799;28;20047;-74
2021/05/21 11:01:12;;;;;;;9.13;1.95;;;15.00;99.90;;;;;;5038608;28;20049;-74
2021/05/21 11:04:01;;;;;;;5.35;1.48;;;15.10;99.90;;;;;;5046175;28;20022;-78
2021/05/21 11:06:28;;;;;;;4.75;1.40;;;15.30;99.90;;;;;;5029077;28;20037;-74
2021/05/21 11:09:05;;;;;;;2.17;1.25;;;15.30;99.90;;;;;;5046762;28;20032;-75
2021/05/21 11:11:45;;;;;;;3.75;1.40;;;15.20;99.90;;;;;;5047075;28;20029;-74
2021/05/21 11:14:32;;;;;;;9.07;1.27;;;15.20;99.90;;;;;;5028419;28;20059;-76
2021/05/21 11:17:13;;;;;;;2.97;1.05;;;15.30;99.90;;;;;;5046324;28;20512;-73
2021/05/21 11:19:49;;;;;;;2.90;1.02;;;15.20;99.90;;;;;;5048375;28;20041;-80
2021/05/21 11:22:26;;;;;;;6.25;1.15;;;15.30;99.90;;;;;;5046446;28;20036;-74
2021/05/21 11:24:58;;;;;;;1.60;0.75;;;15.30;99.90;;;;;;5046705;28;20084;-75
2021/05/21 11:27:25;;;;;;;4.47;0.60;;;15.30;99.90;;;;;;5046612;28;20030;-75
2021/05/21 11:29:53;;;;;;;10.65;1.80;;;15.40;99.90;;;;;;5045866;28;20034;-75
2021/05/21 11:32:21;;;;;;;3.05;1.20;;;15.40;99.90;;;;;;5020570;28;20032;-73
2021/05/21 11:34:47;;;;;;;2.28;0.50;;;15.50;99.90;;;;;;5046282;28;20083;-71
2021/05/21 11:37:21;;;;;;;4.15;0.80;;;15.90;99.90;;;;;;5027437;28;20042;-73
2021/05/21 11:39:48;;;;;;;3.58;1.15;;;16.30;99.90;;;;;;5046058;28;20029;-72
2021/05/21 11:42:14;;;;;;;3.38;1.10;;;16.50;99.90;;;;;;5045165;28;20431;-77
2021/05/21 11:44:49;;;;;;;1.95;1.08;;;16.50;99.90;;;;;;5027738;28;20093;-75
2021/05/21 11:47:29;;;;;;;11.40;2.08;;;16.70;99.90;;;;;;5044364;28;20026;-72
2021/05/21 11:49:56;;;;;;;4.35;1.10;;;17.10;99.90;;;;;;5045831;28;20104;-70
2021/05/21 11:52:22;;;;;;;5.75;1.58;;;17.30;99.90;;;;;;5028972;28;20038;-74
2021/05/21 11:54:48;;;;;;;2.38;1.08;;;17.40;99.90;;;;;;5031195;28;20025;-75
2021/05/21 11:57:18;;;;;;;7.68;1.45;;;17.70;99.90;;;;;;5027966;28;20100;-72
2021/05/21 11:59:44;;;;;;;4.28;1.42;;;18.00;99.90;;;;;;5037858;28;20022;-74
2021/05/21 12:02:15;;;;;;;3.67;1.27;;;18.00;99.90;;;;;;5007184;28;20061;-75
2021/05/21 12:04:45;;;;;;;5.47;1.13;;;17.80;99.90;;;;;;5008179;28;20037;-73
2021/05/21 12:07:23;;;;;;;1.65;0.80;;;17.50;99.90;;;;;;5038456;28;20025;-72
2021/05/21 12:10:03;;;;;;;1.45;0.52;;;17.20;99.90;;;;;;5045878;28;20029;-74
2021/05/21 12:12:32;;;;;;;1.63;1.05;;;16.90;99.90;;;;;;5045861;28;20033;-74
2021/05/21 12:15:06;;;;;;;5.95;1.00;;;16.70;99.90;;;;;;5045499;28;20045;-73
2021/05/21 12:17:35;;;;;;;0.63;0.35;;;17.10;99.90;;;;;;5027498;28;20505;-75
2021/05/21 12:20:05;;;;;;;2.63;0.80;;;17.50;99.90;;;;;;5045607;28;20022;-77
2021/05/21 12:22:31;;;;;;;2.70;0.73;;;18.00;99.90;;;;;;5045635;28;20029;-73
2021/05/21 12:24:58;;;;;;;9.32;1.13;;;18.30;99.90;;;;;;5045363;28;20026;-74
2021/05/21 12:27:25;;;;;;;2.88;0.80;;;18.50;99.90;;;;;;5045370;28;20060;-74
2021/05/21 12:29:52;;;;;;;3.33;0.70;;;18.80;99.90;;;;;;5044970;28;20056;-74
2021/05/21 12:32:18;;;;;;;2.40;0.63;;;18.60;99.90;;;;;;5044552;28;20037;-75
2021/05/21 12:34:43;;;;;;;1.50;0.73;;;18.20;99.90;;;;;;5027254;28;20025;-76
2021/05/21 12:37:10;;;;;;;2.17;0.63;;;17.90;99.90;;;;;;5027241;28;20038;-73
2021/05/21 12:39:40;;;;;;;2.25;0.75;;;17.50;99.90;;;;;;5044905;28;20024;-74
2021/05/21 12:42:07;;;;;;;5.00;0.73;;;17.10;99.90;;;;;;5045204;28;20108;-71
2021/05/21 12:44:37;;;;;;;14.07;0.50;;;16.70;99.90;;;;;;5027382;28;20029;-74
2021/05/21 12:47:04;;;;;;;2.65;0.47;;;16.30;99.90;;;;;;5044579;28;20140;-73
2021/05/21 12:49:30;;;;;;;0.00;0.00;;;16.00;99.90;;;;;;5027163;28;20032;-73